createdAt,value
2022-10-28T00:01:43.474Z,16.70
2022-10-28T00:04:46.518Z,16.70
2022-10-28T00:07:51.171Z,16.60
2022-10-28T00:10:54.792Z,16.60
2022-10-28T00:14:00.442Z,16.60
2022-10-28T00:17:03.508Z,17.40
2022-10-28T00:20:08.419Z,16.60
2022-10-28T00:23:12.848Z,15.70
2022-10-28T00:26:18.246Z,16.60
2022-10-28T00:29:21.715Z,16.60
2022-10-28T00:32:25.370Z,17.70
2022-10-28T00:35:28.397Z,17.50
2022-10-28T00:38:33.333Z,16.70
2022-10-28T00:41:40.571Z,16.70
2022-10-28T00:44:59.903Z,16.80
2022-10-28T00:48:05.697Z,16.70
2022-10-28T00:51:10.394Z,16.80
2022-10-28T00:54:17.209Z,16.80
2022-10-28T00:57:26.851Z,16.70
2022-10-28T01:00:30.219Z,16.70
2022-10-28T01:03:33.246Z,16.60
2022-10-28T01:06:36.569Z,16.60
2022-10-28T01:09:41.711Z,16.50
2022-10-28T01:13:04.217Z,16.50
2022-10-28T01:16:24.803Z,16.40
2022-10-28T01:20:22.449Z,16.50
2022-10-28T01:23:35.268Z,16.00
2022-10-28T01:27:21.078Z,15.90
2022-10-28T01:30:27.062Z,16.30
2022-10-28T01:33:37.670Z,16.30
2022-10-28T01:36:55.825Z,16.30
2022-10-28T01:40:11.169Z,16.80
2022-10-28T01:43:24.446Z,16.20
2022-10-28T01:46:32.779Z,16.20
2022-10-28T01:49:45.590Z,16.20
2022-10-28T01:52:53.082Z,16.30
2022-10-28T01:56:02.120Z,16.30
2022-10-28T01:59:10.443Z,16.30
2022-10-28T02:02:15.463Z,16.30
2022-10-28T02:05:45.838Z,16.50
2022-10-28T02:09:07.287Z,16.30
2022-10-28T02:12:27.830Z,16.40
2022-10-28T02:15:45.529Z,16.00
2022-10-28T02:19:00.935Z,16.40
2022-10-28T02:22:19.664Z,16.30
2022-10-28T02:25:28.661Z,16.30
2022-10-28T02:28:41.773Z,16.30
2022-10-28T02:31:52.082Z,16.20
2022-10-28T02:35:00.131Z,17.20
2022-10-28T02:38:12.005Z,16.10
2022-10-28T02:41:21.511Z,16.10
2022-10-28T02:44:30.485Z,16.10
2022-10-28T02:47:38.665Z,16.00
2022-10-28T02:50:48.319Z,16.00
2022-10-28T02:54:01.935Z,16.00
2022-10-28T02:57:11.207Z,15.70
2022-10-28T03:00:19.307Z,15.90
2022-10-28T03:03:24.921Z,15.90
2022-10-28T03:06:28.942Z,15.80
2022-10-28T03:09:33.515Z,15.80
2022-10-28T03:12:36.510Z,15.70
2022-10-28T03:15:39.513Z,15.70
2022-10-28T03:18:44.141Z,15.70
2022-10-28T03:21:47.062Z,15.70
2022-10-28T03:24:51.516Z,15.70
2022-10-28T03:27:54.476Z,15.70
2022-10-28T03:30:57.423Z,15.60
2022-10-28T03:34:00.499Z,15.60
2022-10-28T03:37:03.438Z,15.60
2022-10-28T03:40:09.649Z,15.60
2022-10-28T03:43:13.116Z,16.30
2022-10-28T03:46:16.363Z,15.80
2022-10-28T03:49:19.425Z,15.50
2022-10-28T03:52:22.446Z,15.60
2022-10-28T03:55:27.569Z,15.60
2022-10-28T03:58:31.019Z,15.60
2022-10-28T04:01:34.717Z,15.60
2022-10-28T04:04:37.726Z,16.50
2022-10-28T04:07:40.629Z,15.60
2022-10-28T04:10:47.427Z,15.60
2022-10-28T04:13:50.803Z,15.60
2022-10-28T04:16:53.766Z,15.50
2022-10-28T04:19:56.804Z,15.60
2022-10-28T04:23:00.534Z,15.50
2022-10-28T04:26:06.069Z,15.30
2022-10-28T04:29:09.425Z,15.50
2022-10-28T04:32:12.666Z,15.50
2022-10-28T04:35:16.048Z,15.50
2022-10-28T04:38:19.065Z,14.80
2022-10-28T04:41:23.458Z,15.40
2022-10-28T04:44:26.439Z,15.40
2022-10-28T04:47:29.550Z,15.30
2022-10-28T04:50:32.938Z,15.20
2022-10-28T04:53:35.971Z,15.20
2022-10-28T04:56:40.495Z,15.20
2022-10-28T04:59:43.584Z,15.20
2022-10-28T05:02:46.585Z,15.10
2022-10-28T05:05:49.723Z,15.20
2022-10-28T05:08:52.645Z,15.10
2022-10-28T05:11:56.951Z,15.10
2022-10-28T05:14:59.922Z,15.10
2022-10-28T05:18:02.908Z,15.20
2022-10-28T05:21:06.376Z,15.10
2022-10-28T05:24:09.959Z,15.10
2022-10-28T05:27:14.377Z,15.10
2022-10-28T05:30:17.597Z,15.00
2022-10-28T05:33:20.722Z,15.00
2022-10-28T05:36:23.758Z,15.00
2022-10-28T05:39:26.856Z,15.10
2022-10-28T05:42:31.388Z,15.00
2022-10-28T05:45:34.457Z,15.00
2022-10-28T05:48:37.979Z,15.00
2022-10-28T05:51:41.049Z,15.00
2022-10-28T05:54:44.050Z,15.00
2022-10-28T05:57:49.575Z,15.00
2022-10-28T06:00:52.693Z,15.00
2022-10-28T06:03:55.844Z,15.00
2022-10-28T06:06:59.040Z,15.00
2022-10-28T06:10:02.827Z,15.80
2022-10-28T06:13:07.236Z,15.00
2022-10-28T06:16:10.299Z,14.40
2022-10-28T06:19:13.285Z,15.10
2022-10-28T06:22:16.403Z,15.10
2022-10-28T06:25:22.551Z,15.10
2022-10-28T06:28:27.803Z,15.10
2022-10-28T06:31:31.859Z,15.20
2022-10-28T06:34:34.816Z,15.50
2022-10-28T06:37:37.920Z,15.20
2022-10-28T06:40:40.881Z,15.20
2022-10-28T06:43:45.245Z,15.20
2022-10-28T06:46:49.801Z,15.30
2022-10-28T06:49:52.852Z,15.30
2022-10-28T06:52:57.378Z,15.80
2022-10-28T06:56:00.504Z,15.40
2022-10-28T06:59:04.965Z,15.50
2022-10-28T07:02:08.212Z,15.60
2022-10-28T07:05:11.574Z,15.60
2022-10-28T07:08:14.956Z,15.70
2022-10-28T07:11:18.987Z,16.10
2022-10-28T07:14:23.401Z,15.80
2022-10-28T07:17:26.570Z,15.80
2022-10-28T07:20:32.010Z,15.90
2022-10-28T07:23:35.127Z,16.00
2022-10-28T07:26:38.118Z,16.10
2022-10-28T07:29:42.411Z,16.20
2022-10-28T07:32:45.439Z,16.00
2022-10-28T07:35:48.661Z,16.40
2022-10-28T07:38:53.411Z,16.40
2022-10-28T07:41:56.480Z,16.50
2022-10-28T07:45:00.951Z,16.50
2022-10-28T07:48:05.076Z,16.60
2022-10-28T07:51:11.268Z,16.70
2022-10-28T07:54:14.370Z,16.80
2022-10-28T07:57:17.455Z,16.90
2022-10-28T08:00:22.013Z,16.90
2022-10-28T08:03:31.366Z,17.40
2022-10-28T08:06:41.172Z,17.10
2022-10-28T08:09:44.331Z,17.20
2022-10-28T08:12:47.443Z,17.30
2022-10-28T08:15:54.989Z,17.30
2022-10-28T08:18:58.221Z,17.50
2022-10-28T08:22:02.344Z,17.60
2022-10-28T08:25:05.765Z,17.70
2022-10-28T08:28:08.865Z,17.80
2022-10-28T08:31:13.335Z,18.30
2022-10-28T08:34:16.359Z,18.10
2022-10-28T08:37:19.881Z,18.30
2022-10-28T08:40:33.576Z,18.70
2022-10-28T08:43:58.161Z,18.60
2022-10-28T08:47:17.817Z,18.80
2022-10-28T08:50:24.899Z,19.00
2022-10-28T08:53:35.056Z,19.20
2022-10-28T08:56:45.944Z,19.50
2022-10-28T08:59:54.570Z,19.60
2022-10-28T09:03:15.052Z,19.80
2022-10-28T09:06:18.102Z,20.20
2022-10-28T09:09:24.436Z,20.10
2022-10-28T09:12:45.581Z,20.20
2022-10-28T09:16:00.944Z,20.30
2022-10-28T09:19:16.627Z,20.30
2022-10-28T09:22:26.300Z,20.40
2022-10-28T09:25:42.678Z,19.90
2022-10-28T09:29:02.792Z,20.50
2022-10-28T09:32:24.170Z,20.60
2022-10-28T09:35:34.831Z,20.60
2022-10-28T09:38:38.939Z,20.60
2022-10-28T09:41:43.791Z,20.50
2022-10-28T09:44:52.618Z,20.40
2022-10-28T09:48:02.743Z,20.30
2022-10-28T09:51:22.462Z,19.90
2022-10-28T09:54:35.673Z,20.30
2022-10-28T09:57:38.664Z,20.40
2022-10-28T10:00:42.262Z,20.40
2022-10-28T10:03:48.698Z,20.40
2022-10-28T10:06:58.999Z,20.50
2022-10-28T10:10:12.650Z,20.50
2022-10-28T10:13:21.606Z,20.50
2022-10-28T10:16:39.870Z,20.60
2022-10-28T10:20:05.286Z,20.70
2022-10-28T10:23:27.801Z,20.60
2022-10-28T10:26:34.382Z,20.50
2022-10-28T10:29:38.648Z,20.50
2022-10-28T10:32:49.296Z,20.50
2022-10-28T10:36:00.355Z,20.40
2022-10-28T10:39:05.240Z,20.40
2022-10-28T10:42:17.777Z,20.60
2022-10-28T10:45:25.348Z,20.40
2022-10-28T10:48:29.128Z,20.40
2022-10-28T10:51:32.413Z,20.30
2022-10-28T10:54:39.343Z,20.40
2022-10-28T10:57:47.702Z,20.40
2022-10-28T11:00:53.667Z,20.50
2022-10-28T11:04:01.659Z,20.60
2022-10-28T11:07:04.708Z,20.60
2022-10-28T11:10:24.320Z,21.40
2022-10-28T11:13:28.391Z,20.70
2022-10-28T11:16:31.340Z,20.90
2022-10-28T11:19:37.165Z,20.80
2022-10-28T11:22:52.724Z,20.90
2022-10-28T11:26:03.340Z,20.90
2022-10-28T11:29:14.122Z,20.80
2022-10-28T11:32:48.792Z,20.90
2022-10-28T11:36:16.216Z,20.80
2022-10-28T11:39:25.437Z,20.80
2022-10-28T11:42:47.970Z,20.80
2022-10-28T11:46:04.567Z,20.80
2022-10-28T11:49:39.260Z,20.70
2022-10-28T11:53:15.472Z,20.80
2022-10-28T11:56:34.959Z,20.70
2022-10-28T12:00:15.402Z,20.70
2022-10-28T12:03:41.262Z,20.70
2022-10-28T12:07:22.156Z,20.70
2022-10-28T12:10:46.362Z,20.70
2022-10-28T12:17:20.710Z,20.70
2022-10-28T12:20:32.650Z,20.60
2022-10-28T12:23:39.259Z,20.70
2022-10-28T12:26:46.722Z,20.90
2022-10-28T12:29:59.718Z,20.50
2022-10-28T12:33:14.465Z,20.50
2022-10-28T12:36:28.386Z,20.50
2022-10-28T12:39:38.536Z,20.50
2022-10-28T12:42:46.773Z,20.50
2022-10-28T12:45:53.450Z,20.50
2022-10-28T12:49:11.462Z,20.50
2022-10-28T12:52:27.449Z,20.40
2022-10-28T12:55:38.473Z,20.30
2022-10-28T12:58:55.785Z,20.30
2022-10-28T13:02:01.353Z,20.20
2022-10-28T13:05:08.342Z,20.20
2022-10-28T13:09:02.070Z,20.00
2022-10-28T13:13:15.954Z,19.90
2022-10-28T13:16:44.340Z,19.90
2022-10-28T13:20:18.228Z,19.80
2022-10-28T13:23:33.882Z,19.70
2022-10-28T13:26:43.275Z,19.60
2022-10-28T13:29:54.953Z,19.50
2022-10-28T13:33:06.840Z,19.40
2022-10-28T13:36:20.013Z,19.40
2022-10-28T13:39:39.856Z,19.20
2022-10-28T13:42:52.400Z,19.20
2022-10-28T13:45:57.284Z,19.20
2022-10-28T13:49:25.334Z,19.10
2022-10-28T13:52:29.715Z,19.10
2022-10-28T13:55:45.586Z,19.10
2022-10-28T13:58:55.100Z,19.10
2022-10-28T14:02:34.725Z,18.80
2022-10-28T14:05:58.323Z,19.00
2022-10-28T14:09:03.849Z,19.00
2022-10-28T14:12:24.660Z,18.90
2022-10-28T14:15:32.985Z,18.90
2022-10-28T14:18:44.998Z,18.80
2022-10-28T14:22:02.447Z,18.90
2022-10-28T14:26:00.851Z,18.90
2022-10-28T14:29:28.566Z,18.80
2022-10-28T14:32:45.211Z,18.80
2022-10-28T14:35:55.341Z,18.80
2022-10-28T14:39:39.714Z,18.70
2022-10-28T14:43:19.621Z,18.70
2022-10-28T14:46:51.375Z,18.70
2022-10-28T14:50:02.702Z,18.60
2022-10-28T14:53:13.221Z,18.60
2022-10-28T14:56:26.540Z,18.50
2022-10-28T14:59:38.308Z,18.50
2022-10-28T15:02:41.679Z,18.40
2022-10-28T15:05:45.192Z,18.40
2022-10-28T15:08:48.281Z,18.30
2022-10-28T15:11:57.114Z,18.20
2022-10-28T15:15:01.483Z,18.20
2022-10-28T15:18:23.147Z,18.80
2022-10-28T15:21:26.210Z,18.00
2022-10-28T15:24:29.341Z,18.20
2022-10-28T15:27:35.737Z,17.90
2022-10-28T15:30:46.774Z,17.90
2022-10-28T15:33:50.255Z,17.90
2022-10-28T15:40:24.539Z,17.80
2022-10-28T15:43:29.848Z,17.80
2022-10-28T15:46:35.631Z,17.80
2022-10-28T15:49:41.975Z,17.80
2022-10-28T15:52:48.081Z,17.80
2022-10-28T15:56:20.172Z,17.70
2022-10-28T15:59:26.504Z,17.60
2022-10-28T16:02:45.801Z,17.70
2022-10-28T16:05:49.461Z,17.50
2022-10-28T16:09:16.396Z,17.50
2022-10-28T16:12:24.995Z,17.40
2022-10-28T16:15:28.548Z,17.40
2022-10-28T16:18:36.076Z,17.30
2022-10-28T16:21:39.956Z,17.30
2022-10-28T16:24:43.499Z,17.30
2022-10-28T16:27:46.576Z,17.20
2022-10-28T16:30:53.459Z,17.20
2022-10-28T16:34:00.060Z,17.20
2022-10-28T16:37:03.362Z,17.20
2022-10-28T16:40:15.515Z,17.20
2022-10-28T16:43:30.541Z,17.20
2022-10-28T16:46:33.618Z,17.20
2022-10-28T16:49:37.916Z,17.20
2022-10-28T16:52:40.989Z,17.20
2022-10-28T16:55:43.989Z,17.20
2022-10-28T16:58:47.022Z,17.20
2022-10-28T17:01:52.151Z,17.20
2022-10-28T17:04:57.740Z,17.20
2022-10-28T17:08:04.395Z,17.30
2022-10-28T17:11:15.937Z,17.20
2022-10-28T17:14:18.868Z,17.20
2022-10-28T17:17:21.867Z,17.20
2022-10-28T17:20:26.326Z,17.20
2022-10-28T17:23:30.053Z,17.20
2022-10-28T17:26:33.179Z,17.20
2022-10-28T17:29:36.589Z,17.50
2022-10-28T17:32:39.561Z,17.20
2022-10-28T17:35:43.882Z,17.20
2022-10-28T17:38:48.639Z,17.20
2022-10-28T17:41:51.597Z,17.30
2022-10-28T17:44:54.698Z,17.20
2022-10-28T17:47:57.817Z,17.20
2022-10-28T17:51:02.377Z,17.30
2022-10-28T17:54:06.094Z,17.20
2022-10-28T17:57:09.101Z,17.20
2022-10-28T18:00:13.594Z,17.20
2022-10-28T18:03:16.659Z,17.20
2022-10-28T18:06:21.015Z,17.20
2022-10-28T18:09:24.764Z,17.20
2022-10-28T18:12:27.774Z,17.20
2022-10-28T18:15:30.702Z,17.10
2022-10-28T18:18:38.997Z,17.20
2022-10-28T18:21:46.800Z,17.20
2022-10-28T18:24:50.082Z,17.20
2022-10-28T18:27:53.130Z,17.10
2022-10-28T18:30:56.132Z,17.20
2022-10-28T18:34:01.205Z,17.20
2022-10-28T18:37:07.874Z,17.20
2022-10-28T18:40:12.375Z,17.10
2022-10-28T18:43:16.446Z,17.20
2022-10-28T18:46:19.420Z,17.10
2022-10-28T18:49:22.562Z,17.10
2022-10-28T18:52:26.974Z,17.20
2022-10-28T18:55:30.039Z,17.10
2022-10-28T18:58:33.329Z,17.20
2022-10-28T19:01:37.463Z,17.10
2022-10-28T19:04:40.431Z,17.20
2022-10-28T19:07:45.498Z,17.20
2022-10-28T19:10:48.801Z,17.20
2022-10-28T19:13:51.857Z,17.20
2022-10-28T19:16:54.873Z,17.20
2022-10-28T19:19:57.937Z,17.20
2022-10-28T19:23:02.340Z,17.20
2022-10-28T19:26:06.757Z,17.30
2022-10-28T19:29:11.377Z,17.20
2022-10-28T19:32:14.344Z,17.30
2022-10-28T19:35:17.528Z,17.30
2022-10-28T19:38:21.822Z,17.30
2022-10-28T19:41:26.530Z,17.20
2022-10-28T19:44:29.513Z,17.40
2022-10-28T19:47:32.519Z,17.40
2022-10-28T19:50:35.496Z,17.30
2022-10-28T19:53:39.749Z,17.40
2022-10-28T19:56:45.157Z,17.30
2022-10-28T19:59:48.192Z,17.30
2022-10-28T20:02:51.153Z,17.30
2022-10-28T20:06:03.657Z,17.00
2022-10-28T20:09:08.616Z,17.40
2022-10-28T20:12:11.595Z,17.40
2022-10-28T20:15:14.692Z,17.40
2022-10-28T20:18:17.788Z,17.40
2022-10-28T20:21:22.992Z,17.50
2022-10-28T20:24:27.393Z,17.00
2022-10-28T20:27:30.365Z,17.50
2022-10-28T20:30:33.327Z,17.50
2022-10-28T20:33:38.246Z,17.40
2022-10-28T20:36:44.005Z,17.40
2022-10-28T20:39:49.730Z,17.50
2022-10-28T20:42:53.671Z,17.40
2022-10-28T20:45:59.627Z,17.50
2022-10-28T20:49:02.988Z,17.50
2022-10-28T20:52:06.651Z,17.50
2022-10-28T20:55:11.705Z,17.40
2022-10-28T20:58:14.916Z,17.40
2022-10-28T21:01:21.523Z,17.40
2022-10-28T21:04:24.693Z,17.40
2022-10-28T21:07:27.845Z,17.40
2022-10-28T21:10:32.384Z,17.50
2022-10-28T21:13:35.642Z,17.50
2022-10-28T21:16:38.666Z,17.50
2022-10-28T21:19:41.639Z,17.50
2022-10-28T21:22:44.667Z,17.50
2022-10-28T21:25:55.001Z,17.50
2022-10-28T21:28:58.814Z,17.60
2022-10-28T21:32:02.196Z,17.60
2022-10-28T21:35:06.604Z,17.60
2022-10-28T21:38:10.462Z,17.60
2022-10-28T21:41:17.516Z,17.70
2022-10-28T21:44:20.569Z,17.70
2022-10-28T21:47:23.532Z,17.70
2022-10-28T21:50:26.486Z,17.70
2022-10-28T21:53:34.044Z,17.80
2022-10-28T21:56:38.463Z,17.80
2022-10-28T21:59:41.469Z,17.80
2022-10-28T22:02:44.504Z,17.90
2022-10-28T22:05:51.502Z,18.00
2022-10-28T22:08:55.593Z,18.20
2022-10-28T22:11:59.888Z,18.00
2022-10-28T22:15:02.788Z,18.10
2022-10-28T22:18:06.084Z,18.20
2022-10-28T22:21:12.285Z,18.20
2022-10-28T22:24:15.527Z,18.20
2022-10-28T22:27:19.956Z,18.30
2022-10-28T22:30:22.979Z,18.30
2022-10-28T22:33:25.985Z,18.70
2022-10-28T22:36:30.950Z,18.40
2022-10-28T22:39:33.954Z,18.40
2022-10-28T22:42:38.228Z,18.40
2022-10-28T22:45:41.242Z,18.40
2022-10-28T22:48:45.234Z,18.40
2022-10-28T22:51:48.275Z,18.40
2022-10-28T22:54:51.189Z,18.50
2022-10-28T22:57:56.681Z,18.50
2022-10-28T23:01:08.631Z,18.50
2022-10-28T23:04:13.047Z,18.40
2022-10-28T23:07:15.864Z,19.40
2022-10-28T23:10:18.808Z,18.50
2022-10-28T23:13:23.171Z,18.50
2022-10-28T23:16:26.789Z,18.10
2022-10-28T23:19:29.738Z,18.60
2022-10-28T23:22:32.716Z,18.40
2022-10-28T23:25:35.685Z,18.70
2022-10-28T23:28:40.787Z,18.50
2022-10-28T23:31:43.858Z,18.60
2022-10-28T23:34:46.853Z,18.90
2022-10-28T23:37:49.861Z,18.70
2022-10-28T23:40:58.487Z,18.60
2022-10-28T23:44:03.006Z,18.20
2022-10-28T23:47:07.502Z,18.70
2022-10-28T23:50:10.954Z,18.80
2022-10-28T23:53:14.537Z,18.70
2022-10-28T23:56:17.559Z,18.80
2022-10-28T23:59:21.884Z,18.80
